Cameron, North Carolina
Current Conditions -  °F | °C
As of 11:35 PM on Sunday 25 Jan 2015 (Local Time) from KSOP Reporting Station
Clear Clear  
Wind Chill: 43°   Ceiling: Unl
Heat Index: 43°   Visibility: 10mi
Dew Point: 32°   Wind: 3mph
Humidity: 66%   Direction: 160°SSE
Pressure: 29.81"   Gusts: NA
Location:  35.33°N, 79.26°W
Report Text: KSOP 260435Z AUTO 16003KT 10SM CLR 06/00 A2981 RMK AO1
Loading
Personal Weather Stations






























Interactive Weather Map New forecast layout! Learn more

10-Day Weather Forecast

Advertisements
Track Severe Weather on mobile